| time (UTC) | temp F | wind direction | speed MPH | gust MPH | rain 1hr in | rain 24hr in | rain mn in | humidity % | barometer mb |
| 20260510023956 | 52 | 189 | 0.0 | 6.0 | 0.00 | 0.16 | 0.17 | 88 | 1005.1 |
| 20260510022925 | 52 | 139 | 1.0 | 6.0 | 0.00 | 0.16 | 0.17 | 88 | 1004.9 |
| 20260510020828 | 52 | 190 | 0.0 | 4.0 | 0.00 | 0.16 | 0.17 | 90 | 1004.5 |
| 20260510015806 | 52 | 96 | 0.0 | 4.0 | 0.00 | 0.16 | 0.17 | 91 | 1004.7 |
| 20260510012500 | 52 | 162 | 0.0 | 6.0 | 0.16 | 0.16 | 0.16 | 90 | 1004.7 |
| 20260510011524 | 52 | 349 | 0.0 | 14.0 | 0.27 | 0.13 | 0.13 | 90 | 1005.1 |
| 20260510010517 | 52 | 185 | 1.0 | 14.0 | 0.42 | 0.08 | 0.09 | 89 | 1005.3 |
| 20260510005520 | 53 | 156 | 1.0 | 9.0 | 0.18 | 0.04 | 0.05 | 88 | 1005.3 |
| 20260510004526 | 54 | 46 | 1.0 | 10.0 | 0.00 | 0.01 | 0.01 | 86 | 1005.2 |
| 20260510003545 | 56 | 328 | 4.0 | 13.0 | 0.00 | 0.00 | 0.00 | 80 | 1004.6 |
| 20260510002555 | 61 | 324 | 0.0 | 13.0 | 0.00 | 0.00 | 0.00 | 66 | 1003.9 |
| 20260510001555 | 63 | 193 | 0.0 | 0.0 | 0.00 | 0.00 | 0.00 | 60 | 1002.9 |
| 20260510000556 | 63 | 171 | 0.0 | 0.0 | 0.00 | 0.00 | 0.00 | 58 | 1002.9 |
| 20260509235616 | 63 | 193 | 0.0 | 0.0 | 0.00 | 0.00 | 0.00 | 57 | 1002.8 |
| 20260509234634 | 63 | 179 | 0.0 | 1.0 | 0.00 | 0.00 | 0.00 | 57 | 1002.5 |
| 20260509232530 | 65 | 152 | 0.0 | 5.0 | 0.00 | 0.00 | 0.00 | 55 | 1002.4 |
| 20260509231512 | 65 | 160 | 0.0 | 4.0 | 0.00 | 0.00 | 0.00 | 54 | 1002.4 |
| 20260509230510 | 65 | 188 | 0.0 | 2.0 | 0.00 | 0.00 | 0.00 | 54 | 1002.3 |
| 20260509225451 | 65 | 168 | 0.0 | 2.0 | 0.00 | 0.00 | 0.00 | 54 | 1002.5 |
| 20260509224425 | 65 | 198 | 0.0 | 3.0 | 0.00 | 0.00 | 0.00 | 53 | 1002.8 |
| 20260509223444 | 66 | 153 | 1.0 | 7.0 | 0.00 | 0.00 | 0.00 | 52 | 1002.8 |
| 20260509222448 | 67 | 179 | 1.0 | 7.0 | 0.00 | 0.00 | 0.00 | 51 | 1002.8 |
| 20260509221419 | 66 | 155 | 1.0 | 7.0 | 0.00 | 0.00 | 0.00 | 52 | 1002.7 |
| 20260509220346 | 67 | 167 | 1.0 | 9.0 | 0.00 | 0.00 | 0.00 | 51 | 1002.8 |
| 20260509215314 | 67 | 169 | 3.0 | 9.0 | 0.00 | 0.00 | 0.00 | 51 | 1002.7 |
| 20260509214254 | 68 | 8 | 1.0 | 7.0 | 0.00 | 0.00 | 0.00 | 51 | 1002.9 |
| 20260509213310 | 68 | 334 | 3.0 | 8.0 | 0.00 | 0.00 | 0.00 | 51 | 1002.6 |
| 20260509212255 | 67 | 172 | 3.0 | 10.0 | 0.00 | 0.00 | 0.00 | 50 | 1002.6 |
| 20260509211222 | 69 | 349 | 4.0 | 11.0 | 0.00 | 0.00 | 0.00 | 47 | 1002.5 |
| 20260509210235 | 70 | 197 | 3.0 | 11.0 | 0.00 | 0.00 | 0.00 | 46 | 1002.6 |
| 20260509205245 | 70 | 146 | 3.0 | 11.0 | 0.00 | 0.00 | 0.00 | 45 | 1002.6 |
| 20260509204250 | 69 | 349 | 4.0 | 11.0 | 0.00 | 0.00 | 0.00 | 46 | 1002.7 |
| 20260509203306 | 70 | 28 | 3.0 | 8.0 | 0.00 | 0.00 | 0.00 | 46 | 1002.8 |
| 20260509202259 | 70 | 178 | 1.0 | 6.0 | 0.00 | 0.00 | 0.00 | 48 | 1002.9 |
| 20260509200116 | 69 | 164 | 3.0 | 8.0 | 0.00 | 0.00 | 0.00 | 46 | 1003.3 |
| 20260509195139 | 69 | 135 | 3.0 | 7.0 | 0.00 | 0.00 | 0.00 | 46 | 1003.3 |
| 20260509194145 | 69 | 13 | 1.0 | 8.0 | 0.00 | 0.00 | 0.00 | 48 | 1003.1 |
| 20260509192034 | 68 | 203 | 3.0 | 8.0 | 0.00 | 0.00 | 0.00 | 49 | 1003.6 |
| 20260509191012 | 69 | 23 | 1.0 | 8.0 | 0.00 | 0.00 | 0.00 | 49 | 1003.6 |
| 20260509183745 | 67 | 172 | 3.0 | 9.0 | 0.00 | 0.00 | 0.00 | 53 | 1004.2 |
| 20260509182742 | 67 | 155 | 3.0 | 9.0 | 0.00 | 0.00 | 0.00 | 54 | 1004.4 |
| 20260509181756 | 67 | 8 | 1.0 | 9.0 | 0.00 | 0.00 | 0.00 | 57 | 1004.5 |
| 20260509180732 | 67 | 152 | 3.0 | 9.0 | 0.00 | 0.00 | 0.00 | 55 | 1004.6 |
| 20260509175725 | 67 | 175 | 3.0 | 6.0 | 0.00 | 0.00 | 0.00 | 56 | 1004.6 |
| 20260509174730 | 66 | 169 | 1.0 | 11.0 | 0.00 | 0.00 | 0.00 | 56 | 1004.6 |
| 20260509173754 | 66 | 162 | 1.0 | 11.0 | 0.00 | 0.00 | 0.00 | 57 | 1004.6 |
| 20260509172814 | 66 | 169 | 1.0 | 6.0 | 0.00 | 0.00 | 0.00 | 57 | 1004.7 |
| 20260509171802 | 66 | 193 | 1.0 | 8.0 | 0.00 | 0.00 | 0.00 | 59 | 1004.7 |
| 20260509170825 | 65 | 349 | 1.0 | 10.0 | 0.00 | 0.00 | 0.00 | 60 | 1004.9 |
| 20260509163533 | 64 | 15 | 1.0 | 6.0 | 0.00 | 0.00 | 0.00 | 64 | 1005.3 |
| 20260509162537 | 63 | 298 | 1.0 | 4.0 | 0.00 | 0.00 | 0.00 | 63 | 1005.4 |
| 20260509161557 | 62 | 183 | 1.0 | 5.0 | 0.00 | 0.00 | 0.00 | 63 | 1005.6 |
| 20260509160548 | 63 | 136 | 0.0 | 5.0 | 0.00 | 0.00 | 0.00 | 64 | 1005.6 |
| 20260509155550 | 62 | 159 | 1.0 | 5.0 | 0.00 | 0.00 | 0.00 | 66 | 1005.7 |
| 20260509154530 | 61 | 193 | 0.0 | 4.0 | 0.00 | 0.00 | 0.00 | 67 | 1005.8 |
| 20260509153545 | 60 | 167 | 0.0 | 7.0 | 0.00 | 0.00 | 0.00 | 68 | 1005.9 |
| 20260509152527 | 61 | 197 | 1.0 | 4.0 | 0.00 | 0.00 | 0.00 | 65 | 1006.0 |
| 20260509151532 | 61 | 160 | 0.0 | 2.0 | 0.00 | 0.00 | 0.00 | 67 | 1005.9 |
| 20260509150526 | 60 | 167 | 0.0 | 4.0 | 0.00 | 0.00 | 0.00 | 68 | 1006.0 |
| 20260509144406 | 60 | 198 | 0.0 | 3.0 | 0.00 | 0.00 | 0.00 | 68 | 1006.2 |
| 20260509142243 | 60 | 160 | 0.0 | 2.0 | 0.00 | 0.00 | 0.00 | 69 | 1006.3 |
| 20260509141230 | 59 | 156 | 0.0 | 6.0 | 0.00 | 0.00 | 0.00 | 72 | 1006.3 |
| 20260509140221 | 59 | 30 | 0.0 | 3.0 | 0.00 | 0.00 | 0.00 | 71 | 1006.4 |
| 20260509135209 | 58 | 136 | 0.0 | 3.0 | 0.00 | 0.00 | 0.00 | 71 | 1006.5 |
| 20260509133036 | 56 | 50 | 0.0 | 0.0 | 0.00 | 0.00 | 0.00 | 72 | 1006.9 |
| 20260509132012 | 55 | 146 | 0.0 | 0.0 | 0.00 | 0.00 | 0.00 | 73 | 1007.1 |
| 20260509131036 | 54 | 167 | 0.0 | 2.0 | 0.00 | 0.00 | 0.00 | 74 | 1007.1 |
| 20260509130056 | 54 | 156 | 0.0 | 0.0 | 0.00 | 0.00 | 0.00 | 74 | 1007.2 |
| 20260509125056 | 53 | 200 | 0.0 | 1.0 | 0.00 | 0.01 | 0.00 | 75 | 1007.2 |
| 20260509124108 | 53 | 179 | 0.0 | 1.0 | 0.00 | 0.01 | 0.00 | 75 | 1007.2 |
| 20260509121918 | 51 | 146 | 0.0 | 0.0 | 0.00 | 0.02 | 0.00 | 77 | 1007.2 |
| 20260509120921 | 51 | 197 | 0.0 | 0.0 | 0.00 | 0.02 | 0.00 | 77 | 1007.4 |
| 20260509115924 | 50 | 162 | 0.0 | 0.0 | 0.00 | 0.02 | 0.00 | 78 | 1007.4 |
| 20260509114903 | 49 | 168 | 0.0 | 0.0 | 0.00 | 0.02 | 0.00 | 78 | 1007.3 |
| 20260509113906 | 49 | 198 | 0.0 | 0.0 | 0.00 | 0.02 | 0.00 | 78 | 1007.4 |
| 20260509112842 | 48 | 144 | 0.0 | 0.0 | 0.00 | 0.02 | 0.00 | 77 | 1007.3 |
| 20260509111854 | 48 | 190 | 0.0 | 0.0 | 0.00 | 0.02 | 0.00 | 76 | 1007.4 |
| 20260509110838 | 48 | 187 | 0.0 | 0.0 | 0.00 | 0.02 | 0.00 | 76 | 1007.5 |
| 20260509105837 | 48 | 209 | 0.0 | 1.0 | 0.00 | 0.02 | 0.00 | 77 | 1007.5 |
| 20260509104844 | 48 | 167 | 0.0 | 0.0 | 0.00 | 0.02 | 0.00 | 76 | 1007.4 |
| 20260509103818 | 47 | 155 | 0.0 | 0.0 | 0.00 | 0.02 | 0.00 | 76 | 1007.4 |
| 20260509102753 | 47 | 182 | 0.0 | 0.0 | 0.00 | 0.02 | 0.00 | 75 | 1007.4 |
| 20260509101718 | 46 | 176 | 0.0 | 0.0 | 0.00 | 0.02 | 0.00 | 74 | 1007.4 |
| 20260509100731 | 45 | 143 | 0.0 | 0.0 | 0.00 | 0.02 | 0.00 | 73 | 1007.4 |
| 20260509095738 | 45 | 182 | 0.0 | 0.0 | 0.00 | 0.02 | 0.00 | 71 | 1007.4 |
| 20260509094735 | 45 | 182 | 0.0 | 0.0 | 0.00 | 0.02 | 0.00 | 69 | 1007.4 |
| 20260509093700 | 45 | 182 | 0.0 | 0.0 | 0.00 | 0.02 | 0.00 | 67 | 1007.4 |
| 20260509092709 | 45 | 182 | 0.0 | 0.0 | 0.00 | 0.02 | 0.00 | 66 | 1007.5 |
| 20260509091639 | 45 | 169 | 0.0 | 0.0 | 0.00 | 0.02 | 0.00 | 65 | 1007.4 |
| 20260509090658 | 45 | 169 | 0.0 | 0.0 | 0.00 | 0.02 | 0.00 | 64 | 1007.6 |
| 20260509084632 | 45 | 169 | 0.0 | 0.0 | 0.00 | 0.02 | 0.00 | 64 | 1007.7 |
| 20260509083609 | 45 | 173 | 0.0 | 0.0 | 0.00 | 0.02 | 0.00 | 63 | 1007.7 |
| 20260509082551 | 45 | 136 | 0.0 | 0.0 | 0.00 | 0.02 | 0.00 | 63 | 1007.9 |
| 20260509081546 | 45 | 195 | 0.0 | 0.0 | 0.00 | 0.02 | 0.00 | 62 | 1008.1 |
| 20260509080610 | 45 | 198 | 0.0 | 0.0 | 0.00 | 0.02 | 0.00 | 61 | 1008.1 |
| 20260509075601 | 45 | 198 | 0.0 | 0.0 | 0.00 | 0.02 | 0.00 | 61 | 1008.2 |
| 20260509074606 | 44 | 185 | 0.0 | 0.0 | 0.00 | 0.02 | 0.00 | 60 | 1008.1 |
| 20260509073617 | 44 | 185 | 0.0 | 0.0 | 0.00 | 0.03 | 0.00 | 60 | 1008.1 |
| 20260509072627 | 44 | 185 | 0.0 | 0.0 | 0.00 | 0.03 | 0.00 | 62 | 1008.2 |
| 20260509071611 | 43 | 191 | 0.0 | 0.0 | 0.00 | 0.03 | 0.00 | 63 | 1008.3 |
| 20260509070605 | 43 | 191 | 0.0 | 0.0 | 0.00 | 0.03 | 0.00 | 64 | 1008.4 |
| 20260509065601 | 44 | 191 | 0.0 | 0.0 | 0.00 | 0.03 | 0.00 | 64 | 1008.6 |
| 20260509064538 | 44 | 191 | 0.0 | 0.0 | 0.00 | 0.03 | 0.00 | 64 | 1008.7 |
| 20260509063534 | 44 | 184 | 0.0 | 0.0 | 0.00 | 0.03 | 0.00 | 64 | 1008.9 |
| 20260509062546 | 44 | 184 | 0.0 | 0.0 | 0.00 | 0.03 | 0.00 | 63 | 1008.9 |
| 20260509061550 | 44 | 184 | 0.0 | 0.0 | 0.00 | 0.03 | 0.00 | 63 | 1009.0 |
| 20260509054259 | 45 | 169 | 0.0 | 0.0 | 0.00 | 0.03 | 0.00 | 63 | 1009.3 |
| 20260509053309 | 46 | 160 | 0.0 | 0.0 | 0.00 | 0.03 | 0.00 | 62 | 1009.4 |
| 20260509052253 | 46 | 153 | 0.0 | 0.0 | 0.00 | 0.03 | 0.00 | 62 | 1009.6 |
| 20260509051258 | 46 | 160 | 0.0 | 0.0 | 0.00 | 0.03 | 0.00 | 61 | 1009.7 |
| 20260509050320 | 46 | 194 | 0.0 | 0.0 | 0.00 | 0.03 | 0.00 | 61 | 1009.8 |
| 20260509045248 | 46 | 163 | 0.0 | 0.0 | 0.00 | 0.03 | 0.00 | 61 | 1009.8 |
| 20260509044225 | 46 | 153 | 0.0 | 0.0 | 0.00 | 0.03 | 0.00 | 62 | 1009.9 |
| 20260509043232 | 46 | 171 | 0.0 | 0.0 | 0.00 | 0.03 | 0.00 | 62 | 1010.0 |
| 20260509042234 | 46 | 200 | 0.0 | 1.0 | 0.00 | 0.03 | 0.00 | 61 | 1010.1 |
| 20260509041252 | 46 | 190 | 0.0 | 0.0 | 0.00 | 0.03 | 0.00 | 61 | 1010.1 |
| 20260509040229 | 46 | 210 | 0.0 | 2.0 | 0.00 | 0.03 | 0.00 | 61 | 1010.1 |
| 20260509032910 | 47 | 169 | 0.0 | 1.0 | 0.00 | 0.04 | 0.03 | 60 | 1010.1 |
| 20260509031916 | 47 | 184 | 0.0 | 0.0 | 0.00 | 0.04 | 0.03 | 60 | 1010.2 |
| 20260509030902 | 47 | 160 | 0.0 | 0.0 | 0.00 | 0.04 | 0.03 | 59 | 1010.2 |
| 20260509025902 | 46 | 165 | 0.0 | 0.0 | 0.00 | 0.04 | 0.03 | 58 | 1010.3 |
| 20260509024916 | 47 | 181 | 0.0 | 0.0 | 0.00 | 0.04 | 0.03 | 59 | 1010.3 |